Sapiranga, Brazil
Current Conditions -  °F | °C
As of 11:17 AM on Sunday 21 Dec 2014 (Local Time) from SBCO Reporting Station
Moderate Rain Moderate Rain  
Wind Chill: 75°   Ceiling: 4000
Heat Index: 75°   Visibility: 2.5mi
Dew Point: 72°   Wind: 8mph
Humidity: 89%   Direction: 130°SE
Pressure: 29.56"   Gusts: NA
Location:  29.64°S, 51.01°W
Report Text: SBCO 211317Z 13007KT 4000 RA BKN040 OVC100 24/22 Q1001
Loading
Personal Weather Stations






























Interactive Weather Map New forecast layout! Learn more

10-Day Weather Forecast

Advertisements
Track Severe Weather on mobile